createdAt,value
2023-04-20T00:00:56.649Z,100.00
2023-04-20T00:03:27.302Z,100.00
2023-04-20T00:05:55.345Z,100.00
2023-04-20T00:08:23.095Z,100.00
2023-04-20T00:10:50.896Z,100.00
2023-04-20T00:13:18.605Z,100.00
2023-04-20T00:15:46.347Z,100.00
2023-04-20T00:18:14.214Z,100.00
2023-04-20T00:20:43.260Z,100.00
2023-04-20T00:23:11.094Z,100.00
2023-04-20T00:25:38.903Z,100.00
2023-04-20T00:28:06.539Z,100.00
2023-04-20T00:30:34.895Z,100.00
2023-04-20T00:33:03.545Z,100.00
2023-04-20T00:35:31.509Z,100.00
2023-04-20T00:38:00.704Z,100.00
2023-04-20T00:40:28.612Z,100.00
2023-04-20T00:42:57.375Z,100.00
2023-04-20T00:45:25.427Z,100.00
2023-04-20T00:47:53.110Z,100.00
2023-04-20T00:50:21.949Z,100.00
2023-04-20T00:52:49.666Z,100.00
2023-04-20T00:55:20.780Z,100.00
2023-04-20T00:57:48.626Z,100.00
2023-04-20T01:00:16.747Z,100.00
2023-04-20T01:02:44.695Z,100.00
2023-04-20T01:05:12.623Z,100.00
2023-04-20T01:07:40.733Z,100.00
2023-04-20T01:10:09.617Z,100.00
2023-04-20T01:12:42.079Z,100.00
2023-04-20T01:15:12.133Z,100.00
2023-04-20T01:17:40.546Z,100.00
2023-04-20T01:20:12.764Z,100.00
2023-04-20T01:22:46.559Z,100.00
2023-04-20T01:25:14.929Z,100.00
2023-04-20T01:27:43.079Z,100.00
2023-04-20T01:30:12.615Z,100.00
2023-04-20T01:32:41.312Z,100.00
2023-04-20T01:35:10.406Z,100.00
2023-04-20T01:37:39.325Z,100.00
2023-04-20T01:40:10.282Z,100.00
2023-04-20T01:42:37.997Z,100.00
2023-04-20T01:45:06.893Z,100.00
2023-04-20T01:47:36.576Z,100.00
2023-04-20T01:50:04.747Z,100.00
2023-04-20T01:52:32.389Z,100.00
2023-04-20T01:55:00.043Z,100.00
2023-04-20T01:57:29.084Z,100.00
2023-04-20T01:59:56.812Z,100.00
2023-04-20T02:02:24.589Z,100.00
2023-04-20T02:04:53.274Z,100.00
2023-04-20T02:07:21.249Z,100.00
2023-04-20T02:09:48.880Z,100.00
2023-04-20T02:12:16.554Z,100.00
2023-04-20T02:14:45.566Z,100.00
2023-04-20T02:17:13.866Z,100.00
2023-04-20T02:19:41.621Z,100.00
2023-04-20T02:22:09.255Z,100.00
2023-04-20T02:24:36.933Z,100.00
2023-04-20T02:27:04.896Z,98.29
2023-04-20T02:29:32.916Z,97.53
2023-04-20T02:32:02.071Z,96.27
2023-04-20T02:34:29.717Z,95.66
2023-04-20T02:36:57.962Z,96.72
2023-04-20T02:39:26.084Z,95.15
2023-04-20T02:41:55.864Z,92.06
2023-04-20T02:44:24.550Z,91.41
2023-04-20T02:46:52.472Z,89.65
2023-04-20T02:49:22.798Z,89.31
2023-04-20T02:51:50.731Z,88.07
2023-04-20T02:54:18.433Z,84.98
2023-04-20T02:56:46.326Z,84.03
2023-04-20T02:59:20.390Z,82.82
2023-04-20T03:02:06.563Z,80.82
2023-04-20T03:04:35.767Z,80.83
2023-04-20T03:07:11.646Z,79.68
2023-04-20T03:09:40.649Z,80.48
2023-04-20T03:12:35.915Z,78.69
2023-04-20T03:15:06.173Z,79.44
2023-04-20T03:18:03.814Z,78.30
2023-04-20T03:20:33.380Z,78.05
2023-04-20T03:23:01.333Z,78.90
2023-04-20T03:25:29.513Z,78.26
2023-04-20T03:27:59.705Z,80.35
2023-04-20T03:30:27.996Z,80.66
2023-04-20T03:33:10.221Z,80.21
2023-04-20T03:35:40.087Z,81.08
2023-04-20T03:38:07.836Z,81.83
2023-04-20T03:40:35.901Z,82.24
2023-04-20T03:43:03.595Z,81.75
2023-04-20T03:45:31.310Z,81.47
2023-04-20T03:47:58.967Z,80.31
2023-04-20T03:50:27.880Z,82.01
2023-04-20T03:52:56.878Z,81.48
2023-04-20T03:55:24.673Z,82.01
2023-04-20T03:57:59.492Z,82.57
2023-04-20T04:00:31.203Z,82.75
2023-04-20T04:03:07.615Z,82.44
2023-04-20T04:05:35.491Z,83.10
2023-04-20T04:08:06.079Z,83.13
2023-04-20T04:10:34.047Z,83.77
2023-04-20T04:13:01.669Z,84.65
2023-04-20T04:15:29.728Z,84.94
2023-04-20T04:18:05.489Z,85.03
2023-04-20T04:20:35.089Z,85.13
2023-04-20T04:23:02.906Z,86.84
2023-04-20T04:25:52.629Z,85.87
2023-04-20T04:28:24.972Z,86.03
2023-04-20T04:31:06.016Z,87.24
2023-04-20T04:33:35.728Z,85.66
2023-04-20T04:36:07.324Z,85.33
2023-04-20T04:38:54.875Z,86.65
2023-04-20T04:41:24.361Z,86.44
2023-04-20T04:43:53.396Z,85.81
2023-04-20T04:46:27.745Z,83.72
2023-04-20T04:49:00.870Z,82.91
2023-04-20T04:51:28.657Z,83.80
2023-04-20T04:53:56.578Z,82.37
2023-04-20T04:56:25.666Z,83.63
2023-04-20T04:58:53.329Z,84.34
2023-04-20T05:01:21.377Z,84.34
2023-04-20T05:03:49.211Z,83.70
2023-04-20T05:06:16.983Z,83.30
2023-04-20T05:08:44.641Z,84.69
2023-04-20T05:11:12.278Z,85.12
2023-04-20T05:13:41.539Z,83.34
2023-04-20T05:16:09.292Z,85.49
2023-04-20T05:18:36.966Z,85.22
2023-04-20T05:21:04.947Z,84.90
2023-04-20T05:23:33.213Z,84.26
2023-04-20T05:26:00.840Z,84.97
2023-04-20T05:28:28.492Z,83.23
2023-04-20T05:30:57.441Z,85.06
2023-04-20T05:33:25.979Z,84.46
2023-04-20T05:35:57.429Z,83.98
2023-04-20T05:38:25.370Z,86.12
2023-04-20T05:40:53.196Z,85.11
2023-04-20T05:43:20.878Z,83.93
2023-04-20T05:45:49.664Z,82.06
2023-04-20T05:48:18.643Z,82.43
2023-04-20T05:50:46.702Z,81.06
2023-04-20T05:53:14.351Z,81.83
2023-04-20T05:55:42.011Z,81.30
2023-04-20T05:58:09.631Z,81.06
2023-04-20T06:00:37.250Z,82.07
2023-04-20T06:03:05.467Z,80.69
2023-04-20T06:05:34.799Z,81.16
2023-04-20T06:08:02.411Z,80.49
2023-04-20T06:10:32.396Z,79.58
2023-04-20T06:13:00.105Z,78.77
2023-04-20T06:15:27.793Z,78.91
2023-04-20T06:17:55.557Z,79.78
2023-04-20T06:20:23.765Z,79.82
2023-04-20T06:22:53.031Z,79.44
2023-04-20T06:25:20.659Z,77.87
2023-04-20T06:27:49.607Z,77.28
2023-04-20T06:30:18.365Z,78.56
2023-04-20T06:32:46.113Z,78.26
2023-04-20T06:35:13.784Z,79.83
2023-04-20T06:37:41.423Z,76.99
2023-04-20T06:40:10.653Z,78.65
2023-04-20T06:42:38.566Z,76.54
2023-04-20T06:45:07.456Z,75.73
2023-04-20T06:47:35.484Z,75.00
2023-04-20T06:50:07.057Z,74.53
2023-04-20T06:52:34.747Z,72.17
2023-04-20T06:55:02.353Z,73.22
2023-04-20T06:57:31.488Z,72.81
2023-04-20T06:59:59.741Z,70.78
2023-04-20T07:02:28.402Z,68.25
2023-04-20T07:05:02.371Z,66.69
2023-04-20T07:07:30.069Z,66.82
2023-04-20T07:09:57.704Z,67.93
2023-04-20T07:12:25.362Z,67.13
2023-04-20T07:14:54.772Z,65.79
2023-04-20T07:17:22.497Z,64.98
2023-04-20T07:19:50.712Z,63.46
2023-04-20T07:22:18.352Z,65.15
2023-04-20T07:24:45.979Z,61.61
2023-04-20T07:27:13.634Z,61.08
2023-04-20T07:29:41.304Z,61.06
2023-04-20T07:32:10.395Z,60.05
2023-04-20T07:34:38.046Z,60.39
2023-04-20T07:37:05.669Z,62.54
2023-04-20T07:39:33.410Z,62.88
2023-04-20T07:42:03.587Z,61.00
2023-04-20T07:44:31.331Z,60.88
2023-04-20T07:46:59.086Z,62.34
2023-04-20T07:49:28.175Z,60.93
2023-04-20T07:52:06.006Z,61.54
2023-04-20T07:54:40.743Z,62.90
2023-04-20T07:57:09.393Z,60.74
2023-04-20T07:59:37.195Z,57.31
2023-04-20T08:02:04.966Z,57.08
2023-04-20T08:04:34.395Z,56.14
2023-04-20T08:07:02.190Z,55.55
2023-04-20T08:09:29.986Z,54.22
2023-04-20T08:11:57.690Z,56.00
2023-04-20T08:14:25.417Z,54.76
2023-04-20T08:16:53.027Z,53.59
2023-04-20T08:19:20.772Z,54.29
2023-04-20T08:21:49.994Z,54.69
2023-04-20T08:24:17.934Z,52.67
2023-04-20T08:26:45.815Z,53.19
2023-04-20T08:29:13.500Z,53.61
2023-04-20T08:31:41.245Z,52.91
2023-04-20T08:34:09.006Z,53.77
2023-04-20T08:36:37.275Z,54.45
2023-04-20T08:39:10.784Z,55.79
2023-04-20T08:41:38.750Z,56.68
2023-04-20T08:44:08.091Z,55.13
2023-04-20T08:46:36.531Z,56.03
2023-04-20T08:49:04.440Z,55.00
2023-04-20T08:51:33.424Z,55.33
2023-04-20T08:54:06.299Z,55.30
2023-04-20T08:56:40.672Z,56.43
2023-04-20T08:59:10.424Z,54.85
2023-04-20T09:01:41.467Z,55.51
2023-04-20T09:04:20.084Z,56.26
2023-04-20T09:06:50.161Z,52.81
2023-04-20T09:09:18.352Z,51.14
2023-04-20T09:11:47.520Z,51.70
2023-04-20T09:14:18.314Z,52.14
2023-04-20T09:16:51.291Z,53.60
2023-04-20T09:19:23.533Z,52.56
2023-04-20T09:21:52.391Z,53.88
2023-04-20T09:24:21.395Z,54.38
2023-04-20T09:26:50.428Z,53.01
2023-04-20T09:29:19.111Z,55.01
2023-04-20T09:31:48.157Z,55.14
2023-04-20T09:34:16.934Z,56.19
2023-04-20T09:36:46.001Z,56.09
2023-04-20T09:39:16.410Z,54.36
2023-04-20T09:41:44.918Z,53.23
2023-04-20T09:44:15.103Z,52.59
2023-04-20T09:46:44.283Z,51.58
2023-04-20T09:49:14.673Z,53.52
2023-04-20T09:51:45.370Z,53.16
2023-04-20T09:54:14.247Z,51.46
2023-04-20T09:56:42.460Z,51.36
2023-04-20T09:59:10.209Z,49.69
2023-04-20T10:01:39.285Z,49.50
2023-04-20T10:04:09.286Z,47.38
2023-04-20T10:06:38.204Z,48.31
2023-04-20T10:09:07.352Z,49.71
2023-04-20T10:11:48.929Z,50.00
2023-04-20T10:14:22.962Z,51.03
2023-04-20T10:17:01.980Z,52.33
2023-04-20T10:19:40.693Z,52.71
2023-04-20T10:22:08.859Z,52.20
2023-04-20T10:24:38.080Z,51.56
2023-04-20T10:27:17.391Z,50.30
2023-04-20T10:29:45.161Z,50.19
2023-04-20T10:32:24.607Z,48.72
2023-04-20T10:35:04.657Z,49.20
2023-04-20T10:37:32.574Z,50.49
2023-04-20T10:40:00.994Z,49.67
2023-04-20T10:42:29.634Z,49.07
2023-04-20T10:44:57.459Z,48.76
2023-04-20T10:47:30.578Z,48.21
2023-04-20T10:50:07.565Z,45.93
2023-04-20T10:52:36.530Z,47.11
2023-04-20T10:55:04.691Z,47.97
2023-04-20T10:57:32.477Z,46.75
2023-04-20T11:00:00.233Z,45.50
2023-04-20T11:02:29.400Z,45.79
2023-04-20T11:05:00.937Z,45.95
2023-04-20T11:07:28.740Z,46.43
2023-04-20T11:09:57.490Z,47.11
2023-04-20T11:12:25.172Z,48.13
2023-04-20T11:14:54.343Z,47.01
2023-04-20T11:17:31.766Z,47.22
2023-04-20T11:20:10.863Z,45.01
2023-04-20T11:22:39.940Z,46.43
2023-04-20T11:25:09.227Z,44.95
2023-04-20T11:27:37.995Z,47.70
2023-04-20T11:30:07.994Z,47.40
2023-04-20T11:32:38.081Z,48.23
2023-04-20T11:35:10.793Z,47.94
2023-04-20T11:37:47.375Z,49.42
2023-04-20T11:40:15.279Z,46.74
2023-04-20T11:42:43.081Z,47.16
2023-04-20T11:45:11.822Z,48.44
2023-04-20T11:47:41.488Z,46.65
2023-04-20T11:50:11.603Z,46.80
2023-04-20T11:52:39.254Z,47.10
2023-04-20T11:55:08.242Z,46.55
2023-04-20T11:57:36.074Z,46.14
2023-04-20T12:00:04.296Z,46.11
2023-04-20T12:02:41.810Z,45.92
2023-04-20T12:05:12.142Z,46.08
2023-04-20T12:07:39.958Z,46.54
2023-04-20T12:10:09.287Z,46.88
2023-04-20T12:12:38.127Z,48.78
2023-04-20T12:15:07.504Z,51.03
2023-04-20T12:17:35.178Z,51.03
2023-04-20T12:20:02.966Z,50.61
2023-04-20T12:22:31.943Z,49.31
2023-04-20T12:25:00.333Z,49.02
2023-04-20T12:27:27.951Z,49.10
2023-04-20T12:29:56.020Z,47.79
2023-04-20T12:32:23.773Z,48.08
2023-04-20T12:34:51.490Z,47.17
2023-04-20T12:37:20.172Z,48.09
2023-04-20T12:39:49.150Z,47.80
2023-04-20T12:42:16.943Z,51.98
2023-04-20T12:44:44.611Z,53.37
2023-04-20T12:47:13.461Z,55.17
2023-04-20T12:49:41.250Z,57.77
2023-04-20T12:52:08.944Z,58.44
2023-04-20T12:54:36.618Z,56.93
2023-04-20T12:57:05.730Z,54.50
2023-04-20T12:59:33.403Z,53.37
2023-04-20T13:02:01.126Z,52.11
2023-04-20T13:04:29.096Z,50.55
2023-04-20T13:06:56.831Z,51.39
2023-04-20T13:09:26.969Z,50.99
2023-04-20T13:11:55.026Z,49.71
2023-04-20T13:14:23.991Z,48.30
2023-04-20T13:16:54.411Z,47.88
2023-04-20T13:19:23.134Z,48.16
2023-04-20T13:21:50.795Z,48.44
2023-04-20T13:24:19.011Z,48.44
2023-04-20T13:26:46.814Z,49.48
2023-04-20T13:29:14.843Z,48.98
2023-04-20T13:31:44.340Z,48.54
2023-04-20T13:34:11.988Z,49.28
2023-04-20T13:36:39.703Z,49.27
2023-04-20T13:39:07.834Z,49.81
2023-04-20T13:41:35.501Z,49.43
2023-04-20T13:44:03.943Z,49.96
2023-04-20T13:46:32.221Z,52.12
2023-04-20T13:49:01.258Z,51.43
2023-04-20T13:51:28.889Z,51.46
2023-04-20T13:53:56.496Z,52.26
2023-04-20T13:56:24.176Z,53.59
2023-04-20T13:58:51.843Z,52.00
2023-04-20T14:01:19.559Z,53.71
2023-04-20T14:03:47.392Z,55.44
2023-04-20T14:06:16.483Z,56.91
2023-04-20T14:08:44.186Z,56.74
2023-04-20T14:11:12.212Z,55.35
2023-04-20T14:13:39.953Z,55.92
2023-04-20T14:16:10.266Z,54.99
2023-04-20T14:18:38.061Z,55.54
2023-04-20T14:21:06.148Z,54.57
2023-04-20T14:23:35.205Z,54.05
2023-04-20T14:26:03.843Z,55.20
2023-04-20T14:28:33.283Z,53.88
2023-04-20T14:31:02.656Z,53.60
2023-04-20T14:33:30.817Z,55.76
2023-04-20T14:35:58.483Z,56.73
2023-04-20T14:38:26.284Z,56.01
2023-04-20T14:40:55.321Z,56.17
2023-04-20T14:43:23.050Z,54.33
2023-04-20T14:45:51.089Z,53.86
2023-04-20T14:48:18.875Z,54.59
2023-04-20T14:50:46.525Z,53.53
2023-04-20T14:53:14.693Z,52.89
2023-04-20T14:55:42.298Z,54.11
2023-04-20T14:58:11.302Z,54.87
2023-04-20T15:00:38.952Z,53.60
2023-04-20T15:03:06.779Z,54.71
2023-04-20T15:05:35.207Z,54.87
2023-04-20T15:08:03.321Z,51.81
2023-04-20T15:10:31.387Z,51.25
2023-04-20T15:12:59.067Z,51.35
2023-04-20T15:15:37.662Z,52.80
2023-04-20T15:18:14.847Z,53.03
2023-04-20T15:20:42.615Z,52.13
2023-04-20T15:23:10.290Z,52.41
2023-04-20T15:25:37.893Z,52.15
2023-04-20T15:28:05.957Z,51.52
2023-04-20T15:30:35.018Z,51.67
2023-04-20T15:33:05.140Z,54.61
2023-04-20T15:35:33.430Z,55.42
2023-04-20T15:38:01.255Z,59.46
2023-04-20T15:40:28.893Z,55.79
2023-04-20T15:42:56.649Z,56.68
2023-04-20T15:45:24.556Z,55.04
2023-04-20T15:47:53.594Z,54.56
2023-04-20T15:50:21.245Z,54.02
2023-04-20T15:52:50.676Z,52.52
2023-04-20T15:55:18.491Z,56.82
2023-04-20T15:57:46.138Z,54.86
2023-04-20T16:00:15.066Z,53.67
2023-04-20T16:02:42.857Z,55.06
2023-04-20T16:05:12.063Z,55.96
2023-04-20T16:07:39.731Z,54.04
2023-04-20T16:10:09.000Z,54.84
2023-04-20T16:12:36.733Z,55.65
2023-04-20T16:15:05.426Z,56.89
2023-04-20T16:17:33.252Z,55.84
2023-04-20T16:20:00.911Z,56.86
2023-04-20T16:22:29.877Z,58.51
2023-04-20T16:24:58.177Z,58.47
2023-04-20T16:27:26.666Z,57.39
2023-04-20T16:29:54.374Z,59.40
2023-04-20T16:32:22.084Z,58.51
2023-04-20T16:34:49.799Z,58.95
2023-04-20T16:37:17.439Z,60.73
2023-04-20T16:39:47.085Z,61.08
2023-04-20T16:42:14.730Z,59.69
2023-04-20T16:44:42.357Z,62.07
2023-04-20T16:47:10.046Z,62.07
2023-04-20T16:49:37.809Z,62.44
2023-04-20T16:52:05.427Z,62.63
2023-04-20T16:54:33.094Z,62.03
2023-04-20T16:57:02.295Z,63.56
2023-04-20T16:59:29.928Z,63.91
2023-04-20T17:01:57.774Z,64.20
2023-04-20T17:04:25.495Z,64.65
2023-04-20T17:06:53.817Z,67.38
2023-04-20T17:09:21.420Z,66.26
2023-04-20T17:11:49.043Z,69.16
2023-04-20T17:14:18.226Z,68.83
2023-04-20T17:16:46.123Z,71.65
2023-04-20T17:19:13.884Z,74.83
2023-04-20T17:21:41.585Z,74.43
2023-04-20T17:24:09.203Z,75.41
2023-04-20T17:26:36.910Z,76.35
2023-04-20T17:29:04.701Z,76.79
2023-04-20T17:31:34.267Z,78.27
2023-04-20T17:34:02.006Z,79.88
2023-04-20T17:36:29.693Z,81.08
2023-04-20T17:38:57.304Z,84.17
2023-04-20T17:41:24.935Z,83.44
2023-04-20T17:43:52.684Z,85.59
2023-04-20T17:46:20.394Z,86.59
2023-04-20T17:48:49.393Z,87.69
2023-04-20T17:51:17.044Z,89.36
2023-04-20T17:53:44.823Z,92.50
2023-04-20T17:56:12.631Z,93.32
2023-04-20T17:58:40.270Z,96.02
2023-04-20T18:01:07.997Z,96.97
2023-04-20T18:03:35.928Z,100.00
2023-04-20T18:06:05.436Z,100.00
2023-04-20T18:08:34.366Z,100.00
2023-04-20T18:11:03.089Z,100.00
2023-04-20T18:13:30.999Z,100.00
2023-04-20T18:15:59.498Z,100.00
2023-04-20T18:18:27.192Z,100.00
2023-04-20T18:20:54.887Z,100.00
2023-04-20T18:23:24.337Z,100.00
2023-04-20T18:25:53.669Z,100.00
2023-04-20T18:28:21.446Z,100.00
2023-04-20T18:30:49.406Z,100.00
2023-04-20T18:33:17.200Z,100.00
2023-04-20T18:35:45.738Z,100.00
2023-04-20T18:38:13.455Z,100.00
2023-04-20T18:40:42.559Z,100.00
2023-04-20T18:43:10.347Z,100.00
2023-04-20T18:45:38.002Z,100.00
2023-04-20T18:48:06.522Z,100.00
2023-04-20T18:50:34.454Z,100.00
2023-04-20T18:53:02.132Z,100.00
2023-04-20T18:55:29.830Z,100.00
2023-04-20T18:57:58.932Z,100.00
2023-04-20T19:00:26.821Z,100.00
2023-04-20T19:02:54.603Z,100.00
2023-04-20T19:05:22.568Z,100.00
2023-04-20T19:07:50.226Z,100.00
2023-04-20T19:10:17.890Z,100.00
2023-04-20T19:12:45.614Z,100.00
2023-04-20T19:15:14.981Z,100.00
2023-04-20T19:17:42.900Z,100.00
2023-04-20T19:20:11.289Z,100.00
2023-04-20T19:22:38.950Z,100.00
2023-04-20T19:25:07.706Z,100.00
2023-04-20T19:27:35.358Z,100.00
2023-04-20T19:30:03.464Z,100.00
2023-04-20T19:32:32.470Z,100.00
2023-04-20T19:35:00.393Z,100.00
2023-04-20T19:37:28.430Z,100.00
2023-04-20T19:39:56.129Z,100.00
2023-04-20T19:42:23.718Z,100.00
2023-04-20T19:44:51.443Z,100.00
2023-04-20T19:47:20.237Z,100.00
2023-04-20T19:49:49.408Z,100.00
2023-04-20T19:52:17.099Z,100.00
2023-04-20T19:54:44.735Z,100.00
2023-04-20T19:57:12.386Z,100.00
2023-04-20T19:59:41.653Z,100.00
2023-04-20T20:02:09.360Z,100.00
2023-04-20T20:04:39.272Z,100.00
2023-04-20T20:07:08.414Z,100.00
2023-04-20T20:09:36.101Z,100.00
2023-04-20T20:12:04.768Z,100.00
2023-04-20T20:14:32.454Z,100.00
2023-04-20T20:17:00.178Z,100.00
2023-04-20T20:19:27.779Z,100.00
2023-04-20T20:21:55.506Z,100.00
2023-04-20T20:24:25.135Z,100.00
2023-04-20T20:26:52.874Z,100.00
2023-04-20T20:29:20.679Z,100.00
2023-04-20T20:31:48.625Z,100.00
2023-04-20T20:34:16.447Z,100.00
2023-04-20T20:36:46.272Z,100.00
2023-04-20T20:39:14.367Z,100.00
2023-04-20T20:41:43.404Z,100.00
2023-04-20T20:44:11.219Z,100.00
2023-04-20T20:46:39.499Z,100.00
2023-04-20T20:49:07.234Z,100.00
2023-04-20T20:51:34.927Z,100.00
2023-04-20T20:54:02.552Z,100.00
2023-04-20T20:56:30.174Z,100.00
2023-04-20T20:58:59.137Z,100.00
2023-04-20T21:01:27.028Z,100.00
2023-04-20T21:03:55.163Z,100.00
2023-04-20T21:06:23.251Z,100.00
2023-04-20T21:08:50.896Z,100.00
2023-04-20T21:11:18.488Z,100.00
2023-04-20T21:13:46.139Z,100.00
2023-04-20T21:16:15.122Z,100.00
2023-04-20T21:18:42.813Z,100.00
2023-04-20T21:21:13.092Z,100.00
2023-04-20T21:23:40.787Z,100.00
2023-04-20T21:26:08.426Z,100.00
2023-04-20T21:28:36.033Z,100.00
2023-04-20T21:31:03.713Z,100.00
2023-04-20T21:33:34.524Z,100.00
2023-04-20T21:36:02.271Z,100.00
2023-04-20T21:38:29.907Z,100.00
2023-04-20T21:40:57.486Z,100.00
2023-04-20T21:43:25.194Z,100.00
2023-04-20T21:45:53.019Z,100.00
2023-04-20T21:48:20.705Z,100.00
2023-04-20T21:50:49.682Z,100.00
2023-04-20T21:53:17.421Z,100.00
2023-04-20T21:55:45.027Z,100.00
2023-04-20T21:58:12.665Z,100.00
2023-04-20T22:00:40.434Z,100.00
2023-04-20T22:03:08.300Z,100.00
2023-04-20T22:05:36.387Z,100.00
2023-04-20T22:08:05.824Z,100.00
2023-04-20T22:10:33.520Z,100.00
2023-04-20T22:13:01.167Z,100.00
2023-04-20T22:15:29.008Z,100.00
2023-04-20T22:18:00.466Z,100.00
2023-04-20T22:20:28.508Z,100.00
2023-04-20T22:22:57.284Z,100.00
2023-04-20T22:25:26.853Z,100.00
2023-04-20T22:27:54.816Z,100.00
2023-04-20T22:30:22.733Z,100.00
2023-04-20T22:32:50.528Z,100.00
2023-04-20T22:35:18.215Z,100.00
2023-04-20T22:37:45.928Z,100.00
2023-04-20T22:40:14.133Z,100.00
2023-04-20T22:42:43.119Z,100.00
2023-04-20T22:45:11.910Z,100.00
2023-04-20T22:47:39.917Z,100.00
2023-04-20T22:50:09.565Z,100.00
2023-04-20T22:52:38.437Z,100.00
2023-04-20T22:55:07.026Z,100.00
2023-04-20T22:57:34.819Z,100.00
2023-04-20T23:00:09.954Z,100.00
2023-04-20T23:02:38.074Z,100.00
2023-04-20T23:05:06.517Z,100.00
2023-04-20T23:07:34.489Z,100.00
2023-04-20T23:10:02.701Z,100.00
2023-04-20T23:12:30.384Z,100.00
2023-04-20T23:15:00.436Z,100.00
2023-04-20T23:17:29.791Z,100.00
2023-04-20T23:19:57.582Z,100.00
2023-04-20T23:22:25.848Z,100.00
2023-04-20T23:24:53.521Z,100.00
2023-04-20T23:27:21.236Z,100.00
2023-04-20T23:29:48.839Z,100.00
2023-04-20T23:32:16.500Z,100.00
2023-04-20T23:34:45.954Z,100.00
2023-04-20T23:37:13.574Z,100.00
2023-04-20T23:39:41.233Z,100.00
2023-04-20T23:42:08.880Z,100.00
2023-04-20T23:44:36.664Z,100.00
2023-04-20T23:47:04.896Z,100.00
2023-04-20T23:49:32.549Z,100.00
2023-04-20T23:52:01.595Z,100.00
2023-04-20T23:54:29.804Z,100.00
2023-04-20T23:56:58.962Z,100.00
2023-04-20T23:59:26.730Z,100.00
